NFFN/NAN METAR and TAF weather

Enter ICAO airport designator
Station Type Date Time Source
NFFN METAR 2020/09/23 02:00 UTC NOAA

NFFN 230200Z 30013KT 9999 SCT028 28/22 Q1011 NOSIG


Station Type Date Time Source
NFFN Decoded METAR 2020/09/23 02:00 UTC NOAA

Nandi, Fiji (NFFN) 17-45S 177-27E 18M
Sep 22, 2020 - 10:00 PM EDT / 2020.09.23 0200 UTC
Wind: from the WNW (300 degrees) at 15 MPH (13 KT):0
Visibility: greater than 7 mile(s):0
Sky conditions: partly cloudy
Temperature: 82 F (28 C)
Dew Point: 71 F (22 C)
Relative Humidity: 69%
Pressure (altimeter): 29.85 in. Hg (1011 hPa)
ob: NFFN 230200Z 30013KT 9999 SCT028 28/22 Q1011 NOSIG
cycle: 2

Station Type Date Time Source
NFFN TAF 2020/09/22 18:03 UTC NOAA

TAF NFFN 221700Z 2218/2318 13005KT 9999 FEW028 SCT048 BKN100
BECMG 2222/2224 30010KT PROB40
TEMPO 2301/2306 5000 SHRA BKN018
BECMG 2304/2306 12005KT

Example: see airport list